To NAV CANADA Home Page Login to a new session Search on AWWS site Feedback and Comments Disclaimer Vers la page française équivalente Tips FAQ What's new on the site To the Forecasts and Observations / NOTAM section To "File a Flight Plan" website Publications and other links Update of the User's profile FIC Telephone Numbers My Weather Data Folder Route Weather Data Regional Weather Data Local Weather Data To the Forecasts and Observations / NOTAM section
Request Generated 07/26/2017 at 04:34:31 UTC . Weather information available at that time is displayed.

METAR/TAF

If you find any discrepancies between the coded METAR/TAF and the plain language METAR/TAF please use the coded METAR/TAF. LWIS bulletins are not decoded in plain language.

TORONTO/LESTER B. PEARSON INTL/ON    

METAR CYYZ 260400Z 18002KT 15SM SKC 18/13 A3022 RMK SLP234 DENSITY ALT 800FT=
METAR
LOCATION
CYYZ - TORONTO/LESTER B. PEARSON INTL/ON
DATE - TIME
26 JULY 2017 - 0400 UTC
WIND
180 TRUE @ 2  KNOTS
VISIBILITY
15 STAT.  MILES
RUNWAY VISUAL RANGE
WEATHER
CLOUDINESS
CLEAR SKY
TEMP / DEWPOINT
18 C / 13 C
ALTIMETER
30.22 IN HG
RECENT WEATHER
WIND SHEAR

METAR CYYZ 260300Z 19004KT 15SM SKC 18/13 A3022 RMK SLP235 DENSITY ALT 800FT=
METAR
LOCATION
CYYZ - TORONTO/LESTER B. PEARSON INTL/ON
DATE - TIME
26 JULY 2017 - 0300 UTC
WIND
190 TRUE @ 4  KNOTS
VISIBILITY
15 STAT.  MILES
RUNWAY VISUAL RANGE
WEATHER
CLOUDINESS
CLEAR SKY
TEMP / DEWPOINT
18 C / 13 C
ALTIMETER
30.22 IN HG
RECENT WEATHER
WIND SHEAR

METAR CYYZ 260200Z 18003KT 15SM SKC 19/13 A3022 RMK SLP236 DENSITY ALT 800FT=
METAR
LOCATION
CYYZ - TORONTO/LESTER B. PEARSON INTL/ON
DATE - TIME
26 JULY 2017 - 0200 UTC
WIND
180 TRUE @ 3  KNOTS
VISIBILITY
15 STAT.  MILES
RUNWAY VISUAL RANGE
WEATHER
CLOUDINESS
CLEAR SKY
TEMP / DEWPOINT
19 C / 13 C
ALTIMETER
30.22 IN HG
RECENT WEATHER
WIND SHEAR

TAF CYYZ 260239Z 2603/2706 VRB03KT P6SM SKC FM260800 VRB03KT 6SM BR FEW020 FM261500 16008KT P6SM FEW120 FM261700 17010KT P6SM BKN090 BKN140 FM270200 24008KT P6SM BKN060 RMK NXT FCST BY 260600Z=
TAF
LOCATION

CYYZ - TORONTO/LESTER B. PEARSON INTL/ON
VALIDITY [UTC]
26 JUL - 0239 to
27 JUL - 0600
 
TIMES
[UTC]
WIND
[DEGREES TRUE]
VISIBILITY
[STAT. MILES]
WEATHER
CLOUDINESS
[FEET AGL]
 
26 JUL - 0300 to
26 JUL - 0800
VARIABLE @ 3 KNOTS
6+
NIL
CLEAR SKY
 
26 JUL - 0800 to
26 JUL - 1500
VARIABLE @ 3 KNOTS
6
MIST
2000 FEW
 
26 JUL - 1500 to
26 JUL - 1700
160 @ 8 KNOTS
6+
NIL
12000 FEW
 
26 JUL - 1700 to
27 JUL - 0200
170 @ 10 KNOTS
6+
NIL
9000 BROKEN
14000 BROKEN
 
27 JUL - 0200 to
27 JUL - 0600
240 @ 8 KNOTS
6+
NIL
6000 BROKEN
REMARKS
THE NEXT FORECAST WILL BE ISSUED BY 0600 UTC ON DAY 26


Your time UTC time
Weather data provided by Environment Canada and NAV CANADA